createdAt,value
2019-04-30T00:00:30.403Z,99.90
2019-04-30T00:03:11.588Z,99.90
2019-04-30T00:05:38.976Z,99.90
2019-04-30T00:08:07.837Z,99.90
2019-04-30T00:10:41.137Z,99.90
2019-04-30T00:13:10.536Z,99.90
2019-04-30T00:15:38.254Z,99.90
2019-04-30T00:18:07.111Z,99.90
2019-04-30T00:20:38.574Z,99.90
2019-04-30T00:23:07.290Z,99.90
2019-04-30T00:25:36.460Z,99.90
2019-04-30T00:28:08.773Z,99.90
2019-04-30T00:30:39.383Z,99.90
2019-04-30T00:33:07.085Z,99.90
2019-04-30T00:35:36.001Z,99.90
2019-04-30T00:38:05.162Z,99.90
2019-04-30T00:40:35.199Z,99.90
2019-04-30T00:43:07.937Z,99.90
2019-04-30T00:45:35.389Z,99.90
2019-04-30T00:48:05.994Z,99.90
2019-04-30T00:50:37.234Z,99.90
2019-04-30T00:53:12.220Z,99.90
2019-04-30T00:55:38.127Z,99.90
2019-04-30T00:58:07.002Z,99.90
2019-04-30T01:00:37.426Z,99.90
2019-04-30T01:03:10.900Z,99.90
2019-04-30T01:05:43.874Z,99.90
2019-04-30T01:08:10.270Z,99.90
2019-04-30T01:10:39.580Z,99.90
2019-04-30T01:13:11.926Z,99.90
2019-04-30T01:15:39.101Z,99.90
2019-04-30T01:18:09.323Z,99.90
2019-04-30T01:20:38.581Z,99.90
2019-04-30T01:23:11.266Z,99.90
2019-04-30T01:25:43.157Z,99.90
2019-04-30T01:28:10.770Z,99.90
2019-04-30T01:30:39.915Z,99.90
2019-04-30T01:33:09.107Z,99.90
2019-04-30T01:35:40.453Z,99.90
2019-04-30T01:38:12.474Z,99.90
2019-04-30T01:40:42.896Z,99.90
2019-04-30T01:43:12.711Z,99.90
2019-04-30T01:45:41.565Z,99.90
2019-04-30T01:48:12.812Z,99.90
2019-04-30T01:50:42.143Z,99.90
2019-04-30T01:53:13.184Z,99.90
2019-04-30T01:55:55.281Z,99.90
2019-04-30T01:58:29.987Z,99.90
2019-04-30T02:01:00.276Z,99.90
2019-04-30T02:03:29.295Z,99.90
2019-04-30T02:05:59.644Z,99.90
2019-04-30T02:08:29.525Z,99.90
2019-04-30T02:10:59.442Z,99.90
2019-04-30T02:13:29.482Z,99.90
2019-04-30T02:15:59.361Z,99.90
2019-04-30T02:18:29.585Z,99.90
2019-04-30T02:20:59.468Z,99.90
2019-04-30T02:23:29.866Z,99.90
2019-04-30T02:25:59.624Z,99.90
2019-04-30T02:28:29.109Z,99.90
2019-04-30T02:31:00.271Z,99.90
2019-04-30T02:33:30.611Z,99.90
2019-04-30T02:36:10.090Z,99.90
2019-04-30T02:38:42.277Z,99.90
2019-04-30T02:41:11.905Z,99.90
2019-04-30T02:43:42.301Z,99.90
2019-04-30T02:46:13.119Z,99.90
2019-04-30T02:48:43.207Z,99.90
2019-04-30T02:51:14.234Z,99.90
2019-04-30T02:53:51.901Z,99.90
2019-04-30T02:56:26.253Z,99.90
2019-04-30T02:58:53.245Z,99.90
2019-04-30T03:01:22.486Z,99.90
2019-04-30T03:03:51.336Z,99.90
2019-04-30T03:06:23.598Z,99.90
2019-04-30T03:08:51.403Z,99.90
2019-04-30T03:11:20.975Z,99.90
2019-04-30T03:13:50.110Z,99.90
2019-04-30T03:16:23.671Z,99.90
2019-04-30T03:18:54.086Z,99.90
2019-04-30T03:21:42.868Z,99.90
2019-04-30T03:24:11.703Z,99.90
2019-04-30T03:26:40.678Z,99.90
2019-04-30T03:29:11.286Z,99.90
2019-04-30T03:31:44.396Z,99.90
2019-04-30T03:34:17.009Z,99.90
2019-04-30T03:36:41.145Z,99.90
2019-04-30T03:39:11.180Z,99.90
2019-04-30T03:41:41.219Z,99.90
2019-04-30T03:44:24.747Z,99.90
2019-04-30T03:46:41.265Z,99.90
2019-04-30T03:49:12.980Z,99.90
2019-04-30T03:51:40.940Z,99.90
2019-04-30T03:54:10.481Z,99.90
2019-04-30T03:56:40.536Z,99.90
2019-04-30T03:59:10.659Z,99.90
2019-04-30T04:01:41.644Z,99.90
2019-04-30T04:04:15.118Z,99.90
2019-04-30T04:06:45.536Z,99.90
2019-04-30T04:09:32.277Z,99.90
2019-04-30T04:12:20.422Z,99.90
2019-04-30T04:14:50.914Z,99.90
2019-04-30T04:17:21.107Z,99.90
2019-04-30T04:19:50.847Z,99.90
2019-04-30T04:22:20.936Z,99.90
2019-04-30T04:24:50.942Z,99.90
2019-04-30T04:27:19.983Z,99.90
2019-04-30T04:29:51.185Z,99.90
2019-04-30T04:32:23.516Z,99.90
2019-04-30T04:34:50.703Z,99.90
2019-04-30T04:37:20.545Z,99.90
2019-04-30T04:39:50.150Z,99.90
2019-04-30T04:42:19.865Z,99.90
2019-04-30T04:44:50.304Z,99.90
2019-04-30T04:47:20.138Z,99.90
2019-04-30T04:49:50.754Z,99.90
2019-04-30T04:52:21.386Z,99.90
2019-04-30T04:54:50.851Z,99.90
2019-04-30T04:57:22.910Z,99.90
2019-04-30T04:59:52.073Z,99.90
2019-04-30T05:02:39.616Z,99.90
2019-04-30T05:05:09.675Z,99.90
2019-04-30T05:07:39.917Z,99.90
2019-04-30T05:10:09.377Z,99.90
2019-04-30T05:12:39.862Z,99.90
2019-04-30T05:15:10.030Z,99.90
2019-04-30T05:17:39.863Z,99.90
2019-04-30T05:20:09.957Z,99.90
2019-04-30T05:22:39.157Z,99.90
2019-04-30T05:25:08.944Z,99.90
2019-04-30T05:27:39.273Z,99.90
2019-04-30T05:30:12.052Z,99.90
2019-04-30T05:32:40.042Z,99.90
2019-04-30T05:35:09.573Z,99.90
2019-04-30T05:37:38.678Z,99.90
2019-04-30T05:40:09.135Z,99.90
2019-04-30T05:42:38.748Z,99.90
2019-04-30T05:45:09.299Z,99.90
2019-04-30T05:47:38.963Z,99.90
2019-04-30T05:50:08.872Z,99.10
2019-04-30T05:52:39.759Z,98.80
2019-04-30T05:55:08.970Z,99.00
2019-04-30T05:57:47.152Z,98.70
2019-04-30T06:00:09.964Z,99.00
2019-04-30T06:02:40.008Z,99.40
2019-04-30T06:05:09.786Z,99.20
2019-04-30T06:07:39.498Z,99.20
2019-04-30T06:10:10.555Z,99.40
2019-04-30T06:12:43.693Z,99.00
2019-04-30T06:15:24.845Z,99.30
2019-04-30T06:18:01.072Z,99.40
2019-04-30T06:20:28.788Z,99.70
2019-04-30T06:22:59.807Z,99.90
2019-04-30T06:25:37.205Z,99.90
2019-04-30T06:28:00.392Z,99.90
2019-04-30T06:30:29.907Z,99.90
2019-04-30T06:32:59.735Z,99.70
2019-04-30T06:35:29.411Z,99.90
2019-04-30T06:37:59.189Z,99.70
2019-04-30T06:40:29.295Z,99.70
2019-04-30T06:43:00.751Z,98.90
2019-04-30T06:45:31.057Z,98.80
2019-04-30T06:48:03.039Z,98.90
2019-04-30T06:50:31.892Z,99.10
2019-04-30T06:53:01.644Z,97.80
2019-04-30T06:55:39.279Z,97.70
2019-04-30T06:58:12.843Z,98.60
2019-04-30T07:00:40.901Z,98.20
2019-04-30T07:03:11.270Z,97.80
2019-04-30T07:05:40.129Z,98.20
2019-04-30T07:08:38.966Z,98.60
2019-04-30T07:11:15.261Z,99.00
2019-04-30T07:13:45.752Z,98.80
2019-04-30T07:16:14.603Z,98.50
2019-04-30T07:18:43.458Z,98.60
2019-04-30T07:21:12.412Z,98.50
2019-04-30T07:23:41.267Z,98.60
2019-04-30T07:26:13.774Z,98.80
2019-04-30T07:28:47.766Z,98.60
2019-04-30T07:31:14.451Z,98.60
2019-04-30T07:33:42.678Z,98.30
2019-04-30T07:36:11.646Z,98.80
2019-04-30T07:38:43.109Z,98.20
2019-04-30T07:41:10.981Z,99.60
2019-04-30T07:43:39.910Z,99.60
2019-04-30T07:46:09.209Z,99.90
2019-04-30T07:48:40.212Z,99.80
2019-04-30T07:51:10.399Z,99.90
2019-04-30T07:53:40.460Z,99.90
2019-04-30T07:56:24.346Z,99.10
2019-04-30T07:58:40.080Z,99.60
2019-04-30T08:01:10.439Z,99.90
2019-04-30T08:03:47.363Z,99.90
2019-04-30T08:06:18.934Z,99.90
2019-04-30T08:08:50.654Z,99.20
2019-04-30T08:11:25.553Z,99.20
2019-04-30T08:13:50.183Z,98.50
2019-04-30T08:16:19.508Z,98.90
2019-04-30T08:18:49.219Z,98.20
2019-04-30T08:21:18.985Z,98.40
2019-04-30T08:23:49.031Z,97.90
2019-04-30T08:26:18.740Z,98.20
2019-04-30T08:28:48.774Z,98.10
2019-04-30T08:31:19.584Z,98.10
2019-04-30T08:33:49.083Z,98.80
2019-04-30T08:36:19.670Z,98.20
2019-04-30T08:38:49.511Z,98.90
2019-04-30T08:41:19.325Z,98.70
2019-04-30T08:43:50.256Z,98.60
2019-04-30T08:46:19.265Z,98.30
2019-04-30T08:48:53.085Z,98.30
2019-04-30T08:51:19.645Z,98.60
2019-04-30T08:53:48.828Z,98.10
2019-04-30T08:56:21.670Z,98.50
2019-04-30T08:59:42.501Z,97.00
2019-04-30T09:18:00.678Z,97.90
2019-04-30T09:21:15.995Z,97.80
2019-04-30T09:24:39.441Z,97.70
2019-04-30T09:27:14.123Z,98.00
2019-04-30T09:29:44.586Z,98.20
2019-04-30T09:32:13.700Z,98.20
2019-04-30T09:34:42.557Z,97.10
2019-04-30T09:37:11.469Z,97.40
2019-04-30T09:39:40.328Z,97.50
2019-04-30T09:42:09.319Z,97.10
2019-04-30T09:44:39.038Z,95.50
2019-04-30T09:47:08.905Z,96.30
2019-04-30T09:49:38.834Z,96.60
2019-04-30T09:52:09.276Z,96.40
2019-04-30T09:54:39.907Z,95.90
2019-04-30T09:57:11.433Z,96.10
2019-04-30T09:59:39.614Z,96.70
2019-04-30T10:02:09.312Z,95.70
2019-04-30T10:04:39.804Z,96.50
2019-04-30T10:07:09.644Z,95.30
2019-04-30T10:09:38.722Z,96.80
2019-04-30T10:12:12.246Z,97.90
2019-04-30T10:14:41.143Z,98.60
2019-04-30T10:17:14.525Z,98.90
2019-04-30T10:19:43.699Z,98.90
2019-04-30T10:22:12.537Z,99.00
2019-04-30T10:24:41.429Z,99.40
2019-04-30T10:27:13.080Z,99.80
2019-04-30T10:29:41.449Z,99.60
2019-04-30T10:32:10.693Z,99.90
2019-04-30T10:34:39.593Z,99.90
2019-04-30T10:37:09.078Z,99.90
2019-04-30T10:39:38.939Z,99.90
2019-04-30T10:42:08.065Z,99.90
2019-04-30T10:44:36.943Z,99.90
2019-04-30T10:47:05.773Z,99.90
2019-04-30T10:49:34.722Z,99.90
2019-04-30T10:52:03.862Z,99.90
2019-04-30T10:54:32.716Z,99.90
2019-04-30T10:57:01.607Z,99.90
2019-04-30T10:59:30.448Z,99.90
2019-04-30T11:01:59.316Z,99.90
2019-04-30T11:04:28.229Z,99.90
2019-04-30T11:07:00.030Z,99.90
2019-04-30T11:09:29.298Z,99.90
2019-04-30T11:12:02.901Z,99.90
2019-04-30T11:14:30.995Z,99.90
2019-04-30T11:17:00.213Z,99.90
2019-04-30T11:19:29.676Z,99.90
2019-04-30T11:21:58.851Z,99.90
2019-04-30T11:24:36.368Z,99.90
2019-04-30T11:26:59.919Z,99.90
2019-04-30T11:29:30.815Z,99.90
2019-04-30T11:32:10.062Z,99.90
2019-04-30T11:34:39.114Z,99.90
2019-04-30T11:37:08.156Z,99.90
2019-04-30T11:39:37.853Z,99.90
2019-04-30T11:42:06.708Z,99.90
2019-04-30T11:44:35.561Z,99.90
2019-04-30T11:47:09.362Z,99.90
2019-04-30T11:49:37.883Z,99.90
2019-04-30T11:52:06.846Z,99.90
2019-04-30T11:54:35.776Z,99.90
2019-04-30T11:57:05.241Z,99.90
2019-04-30T11:59:34.073Z,99.90
2019-04-30T12:02:04.526Z,99.90
2019-04-30T12:04:33.410Z,99.90
2019-04-30T12:07:03.832Z,99.90
2019-04-30T12:09:40.485Z,99.90
2019-04-30T12:12:09.341Z,99.90
2019-04-30T12:14:39.578Z,99.90
2019-04-30T12:17:08.691Z,99.90
2019-04-30T12:19:38.833Z,99.90
2019-04-30T12:22:07.809Z,99.90
2019-04-30T12:24:38.658Z,99.90
2019-04-30T12:27:07.225Z,99.90
2019-04-30T12:29:36.070Z,99.90
2019-04-30T12:32:05.015Z,99.90
2019-04-30T12:34:33.854Z,99.90
2019-04-30T12:37:02.715Z,99.40
2019-04-30T12:39:31.619Z,99.90
2019-04-30T12:42:02.137Z,99.90
2019-04-30T12:44:31.125Z,99.90
2019-04-30T12:47:00.028Z,99.90
2019-04-30T12:49:30.455Z,99.90
2019-04-30T12:52:09.609Z,99.90
2019-04-30T12:54:49.037Z,99.90
2019-04-30T12:57:22.240Z,99.90
2019-04-30T12:59:51.057Z,99.90
2019-04-30T13:02:19.927Z,99.90
2019-04-30T13:04:49.289Z,99.90
2019-04-30T13:07:20.623Z,99.90
2019-04-30T13:09:49.686Z,99.90
2019-04-30T13:12:19.743Z,99.90
2019-04-30T13:14:52.486Z,99.90
2019-04-30T13:17:19.340Z,99.90
2019-04-30T13:19:48.236Z,99.90
2019-04-30T13:22:18.884Z,99.90
2019-04-30T13:24:49.669Z,99.90
2019-04-30T13:27:19.564Z,99.90
2019-04-30T13:29:50.235Z,99.90
2019-04-30T13:32:29.568Z,99.90
2019-04-30T13:34:54.013Z,99.90
2019-04-30T13:37:22.858Z,99.90
2019-04-30T13:39:56.567Z,99.90
2019-04-30T13:42:29.231Z,99.90
2019-04-30T13:44:57.645Z,99.90
2019-04-30T13:47:26.504Z,99.90
2019-04-30T13:49:55.444Z,99.90
2019-04-30T13:52:24.301Z,99.90
2019-04-30T13:54:53.157Z,99.90
2019-04-30T13:57:22.042Z,99.90
2019-04-30T13:59:51.132Z,99.90
2019-04-30T14:02:20.044Z,99.90
2019-04-30T14:04:53.029Z,99.90
2019-04-30T14:07:32.592Z,99.90
2019-04-30T14:10:01.678Z,99.90
2019-04-30T14:12:32.214Z,99.90
2019-04-30T14:15:01.186Z,99.90
2019-04-30T14:17:31.840Z,99.90
2019-04-30T14:20:00.727Z,99.80
2019-04-30T14:22:29.619Z,98.70
2019-04-30T14:24:58.715Z,99.40
2019-04-30T14:27:27.584Z,99.30
2019-04-30T14:29:56.599Z,99.90
2019-04-30T14:32:25.794Z,99.90
2019-04-30T14:34:54.642Z,99.90
2019-04-30T14:37:23.478Z,99.90
2019-04-30T14:39:52.737Z,99.90
2019-04-30T14:42:22.811Z,99.90
2019-04-30T14:44:54.485Z,99.90
2019-04-30T14:47:42.642Z,99.90
2019-04-30T14:50:13.439Z,99.90
2019-04-30T14:52:49.944Z,99.90
2019-04-30T14:55:20.379Z,99.90
2019-04-30T14:58:00.733Z,99.90
2019-04-30T15:00:38.765Z,99.90
2019-04-30T15:03:11.590Z,99.80
2019-04-30T15:05:48.497Z,98.90
2019-04-30T15:08:10.936Z,99.90
2019-04-30T15:10:39.952Z,99.90
2019-04-30T15:13:12.086Z,99.40
2019-04-30T15:15:41.385Z,99.40
2019-04-30T15:18:11.195Z,99.90
2019-04-30T15:20:40.061Z,99.80
2019-04-30T15:23:19.148Z,99.90
2019-04-30T15:25:44.345Z,99.90
2019-04-30T15:28:13.172Z,99.40
2019-04-30T15:30:42.184Z,99.90
2019-04-30T15:33:18.744Z,99.90
2019-04-30T15:35:48.205Z,99.90
2019-04-30T15:38:19.340Z,99.90
2019-04-30T15:40:48.428Z,99.90
2019-04-30T15:43:17.362Z,99.90
2019-04-30T15:45:46.212Z,99.90
2019-04-30T15:48:15.147Z,99.90
2019-04-30T15:50:46.519Z,99.90
2019-04-30T15:53:14.954Z,99.90
2019-04-30T15:55:43.882Z,99.90
2019-04-30T15:58:14.303Z,99.90
2019-04-30T16:00:43.159Z,99.90
2019-04-30T16:03:16.169Z,99.90
2019-04-30T16:05:49.383Z,99.90
2019-04-30T16:08:22.634Z,99.90
2019-04-30T16:11:10.384Z,99.90
2019-04-30T16:13:49.591Z,99.90
2019-04-30T16:16:19.182Z,99.90
2019-04-30T16:18:49.764Z,99.90
2019-04-30T16:21:19.318Z,99.90
2019-04-30T16:23:49.088Z,99.90
2019-04-30T16:26:18.109Z,99.90
2019-04-30T16:28:49.063Z,99.90
2019-04-30T16:31:20.294Z,99.90
2019-04-30T16:33:48.858Z,99.90
2019-04-30T16:36:19.321Z,99.90
2019-04-30T16:38:48.656Z,99.90
2019-04-30T16:41:30.432Z,99.90
2019-04-30T16:43:48.860Z,99.90
2019-04-30T16:46:18.153Z,99.90
2019-04-30T16:48:48.831Z,99.90
2019-04-30T16:51:18.799Z,99.90
2019-04-30T16:53:48.667Z,99.90
2019-04-30T16:56:18.572Z,99.90
2019-04-30T16:59:00.481Z,99.90
2019-04-30T17:01:30.638Z,99.90
2019-04-30T17:04:04.070Z,99.90
2019-04-30T17:06:34.673Z,99.90
2019-04-30T17:09:14.034Z,99.90
2019-04-30T17:11:59.561Z,99.90
2019-04-30T17:14:30.683Z,99.90
2019-04-30T17:16:59.833Z,99.90
2019-04-30T17:19:29.170Z,99.90
2019-04-30T17:21:58.212Z,99.90
2019-04-30T17:24:30.242Z,99.90
2019-04-30T17:26:59.372Z,99.90
2019-04-30T17:29:28.243Z,99.90
2019-04-30T17:31:57.099Z,99.90
2019-04-30T17:34:25.992Z,99.90
2019-04-30T17:36:54.848Z,99.90
2019-04-30T17:39:23.706Z,99.90
2019-04-30T17:41:52.617Z,99.90
2019-04-30T17:44:21.457Z,99.90
2019-04-30T17:46:50.399Z,99.90
2019-04-30T17:49:19.508Z,99.90
2019-04-30T17:51:49.138Z,99.90
2019-04-30T17:54:18.119Z,99.90
2019-04-30T17:56:47.008Z,99.90
2019-04-30T17:59:15.841Z,99.90
2019-04-30T18:01:49.643Z,99.90
2019-04-30T18:04:20.510Z,99.90
2019-04-30T18:06:50.619Z,99.90
2019-04-30T18:09:19.777Z,99.90
2019-04-30T18:11:49.564Z,99.90
2019-04-30T18:14:18.790Z,99.90
2019-04-30T18:16:48.650Z,99.90
2019-04-30T18:19:28.693Z,99.90
2019-04-30T18:21:59.719Z,99.90
2019-04-30T18:24:33.237Z,99.90
2019-04-30T18:27:06.128Z,99.90
2019-04-30T18:29:35.001Z,99.90
2019-04-30T18:32:03.895Z,99.90
2019-04-30T18:34:32.760Z,99.90
2019-04-30T18:37:01.619Z,99.90
2019-04-30T18:39:30.521Z,99.90
2019-04-30T18:41:59.393Z,99.90
2019-04-30T18:44:29.549Z,99.90
2019-04-30T18:46:59.063Z,99.90
2019-04-30T18:49:29.733Z,99.90
2019-04-30T18:52:01.409Z,99.90
2019-04-30T18:54:39.573Z,99.90
2019-04-30T18:57:08.237Z,99.90
2019-04-30T18:59:37.102Z,99.90
2019-04-30T19:02:07.667Z,99.90
2019-04-30T19:04:38.918Z,99.90
2019-04-30T19:07:25.009Z,99.90
2019-04-30T19:10:10.777Z,99.90
2019-04-30T19:12:41.358Z,99.90
2019-04-30T19:15:11.784Z,99.90
2019-04-30T19:17:45.346Z,99.90
2019-04-30T19:20:21.657Z,99.90
2019-04-30T19:22:50.559Z,99.90
2019-04-30T19:25:19.425Z,99.90
2019-04-30T19:27:48.273Z,99.90
2019-04-30T19:30:19.262Z,99.90
2019-04-30T19:32:49.145Z,99.90
2019-04-30T19:35:18.754Z,99.90
2019-04-30T19:37:48.702Z,99.90
2019-04-30T19:40:18.988Z,99.90
2019-04-30T19:42:50.222Z,99.90
2019-04-30T19:45:18.774Z,99.90
2019-04-30T19:47:48.972Z,99.90
2019-04-30T19:50:19.271Z,99.90
2019-04-30T19:52:48.413Z,99.90
2019-04-30T19:55:20.421Z,99.90
2019-04-30T19:57:48.772Z,99.90
2019-04-30T20:00:18.887Z,99.90
2019-04-30T20:02:48.703Z,99.90
2019-04-30T20:05:19.393Z,99.90
2019-04-30T20:07:49.316Z,99.90
2019-04-30T20:10:19.592Z,99.90
2019-04-30T20:12:49.702Z,99.90
2019-04-30T20:15:21.765Z,99.90
2019-04-30T20:17:49.877Z,99.90
2019-04-30T20:20:19.058Z,99.90
2019-04-30T20:22:48.224Z,99.90
2019-04-30T20:25:18.956Z,99.90
2019-04-30T20:27:49.478Z,99.90
2019-04-30T20:30:19.558Z,99.90
2019-04-30T20:32:49.091Z,99.90
2019-04-30T20:35:19.418Z,99.90
2019-04-30T20:38:06.382Z,99.90
2019-04-30T20:40:43.280Z,99.90
2019-04-30T20:43:08.581Z,99.90
2019-04-30T20:45:37.826Z,99.90
2019-04-30T20:48:08.769Z,99.90
2019-04-30T20:50:37.335Z,99.90
2019-04-30T20:53:08.618Z,99.90
2019-04-30T20:55:40.571Z,99.90
2019-04-30T20:58:09.417Z,99.90
2019-04-30T21:00:38.435Z,99.90
2019-04-30T21:03:09.547Z,99.90
2019-04-30T21:05:38.246Z,99.90
2019-04-30T21:08:07.336Z,99.90
2019-04-30T21:10:36.342Z,99.90
2019-04-30T21:13:05.514Z,99.90
2019-04-30T21:15:34.505Z,99.90
2019-04-30T21:18:03.408Z,99.90
2019-04-30T21:20:32.418Z,99.90
2019-04-30T21:23:01.410Z,99.90
2019-04-30T21:25:30.281Z,99.90
2019-04-30T21:27:59.953Z,99.90
2019-04-30T21:30:29.193Z,99.90
2019-04-30T21:32:59.852Z,99.90
2019-04-30T21:35:33.118Z,99.90
2019-04-30T21:38:02.837Z,99.90
2019-04-30T21:40:31.830Z,99.90
2019-04-30T21:43:00.721Z,99.90
2019-04-30T21:45:31.558Z,99.90
2019-04-30T21:48:01.559Z,99.90
2019-04-30T21:50:30.780Z,99.90
2019-04-30T21:52:59.943Z,99.90
2019-04-30T21:55:29.599Z,99.90
2019-04-30T21:57:59.436Z,99.90
2019-04-30T22:00:37.320Z,99.90
2019-04-30T22:03:14.992Z,99.90
2019-04-30T22:05:51.353Z,99.90
2019-04-30T22:08:39.435Z,99.90
2019-04-30T22:14:01.845Z,99.90
2019-04-30T22:16:43.742Z,99.90
2019-04-30T22:19:27.695Z,99.90
2019-04-30T22:21:59.346Z,99.90
2019-04-30T22:24:35.511Z,99.90
2019-04-30T22:27:04.607Z,99.90
2019-04-30T22:29:41.398Z,99.90
2019-04-30T22:32:09.229Z,99.90
2019-04-30T22:34:38.034Z,99.90
2019-04-30T22:37:08.448Z,99.90
2019-04-30T22:39:41.529Z,99.90
2019-04-30T22:42:30.033Z,99.90
2019-04-30T22:44:59.688Z,99.90
2019-04-30T22:47:28.604Z,99.90
2019-04-30T22:49:57.458Z,99.90
2019-04-30T22:52:26.585Z,99.90
2019-04-30T22:54:55.577Z,99.90
2019-04-30T22:57:24.569Z,99.90
2019-04-30T22:59:54.260Z,99.90
2019-04-30T23:02:31.051Z,99.90
2019-04-30T23:05:01.768Z,99.90
2019-04-30T23:07:30.780Z,99.90
2019-04-30T23:09:59.770Z,99.90
2019-04-30T23:12:28.865Z,99.90
2019-04-30T23:14:57.865Z,99.90
2019-04-30T23:17:26.839Z,99.90
2019-04-30T23:19:55.947Z,99.90
2019-04-30T23:22:24.836Z,99.90
2019-04-30T23:24:53.726Z,99.90
2019-04-30T23:27:22.617Z,99.90
2019-04-30T23:30:02.841Z,99.90
2019-04-30T23:32:21.969Z,99.90
2019-04-30T23:34:50.927Z,99.90
2019-04-30T23:37:19.922Z,99.90
2019-04-30T23:39:48.871Z,99.90
2019-04-30T23:42:18.111Z,99.90
2019-04-30T23:44:47.001Z,99.90
2019-04-30T23:47:15.890Z,99.90
2019-04-30T23:49:44.988Z,99.90
2019-04-30T23:52:13.979Z,99.90
2019-04-30T23:54:42.870Z,99.90
2019-04-30T23:57:11.862Z,99.90
2019-04-30T23:59:40.750Z,99.90
